< Typhoon 198929 1989 Season Typhoon 198931 >
Typhoon 198930 (HUNT)
General InformationTrack Information on Google MapsDetailed Wind InformationList of All Images || NewsDisaster Info.ResourceGoogle EarthGE AnimationAtom FeedGeoJSON
Detalied Best Track (Time Zone = UTC)
Year Month Day Hour Lat. Long. Pressure (hPa) Wind (kt) Class Image Chart
1989 11 15 18 12.5 136.5 1004 0 2 Image Chart
1989 11 16 00 12.0 135.0 1004 0 2 Image Chart
1989 11 16 06 12.0 134.0 1002 0 2 Image Chart
1989 11 16 12 12.0 133.0 1002 0 2 Image Chart
1989 11 16 18 12.0 132.0 998 35 3 Image Chart
1989 11 17 00 12.2 131.4 996 40 3 Image Chart
1989 11 17 06 12.0 130.5 992 45 3 Image Chart
1989 11 17 12 11.8 130.0 990 45 3 Image Chart
1989 11 17 18 12.4 130.1 985 50 4 Image Chart
1989 11 18 00 13.0 129.0 980 55 4 Image Chart
1989 11 18 06 12.9 128.0 975 60 4 Image Chart
1989 11 18 12 13.0 127.6 975 60 4 Image Chart
1989 11 18 18 13.5 127.4 970 65 5 Image Chart
1989 11 19 00 14.0 127.2 965 70 5 Image Chart
1989 11 19 06 14.6 127.0 960 75 5 Image Chart
1989 11 19 12 15.1 126.9 960 75 5 Image Chart
1989 11 19 18 15.3 126.7 960 75 5 Image Chart
1989 11 20 00 15.5 126.5 960 75 5 Image Chart
1989 11 20 06 15.6 126.2 960 75 5 Image Chart
1989 11 20 12 15.7 125.8 960 75 5 Image Chart
1989 11 20 18 15.4 125.2 960 75 5 Image Chart
1989 11 21 00 15.1 124.1 960 75 5 Image Chart
1989 11 21 06 15.1 123.3 960 75 5 Image Chart
1989 11 21 12 15.1 122.6 960 75 5 Image Chart
1989 11 21 18 15.3 121.8 970 65 5 Image Chart
1989 11 22 00 15.7 121.3 985 50 4 Image Chart
1989 11 22 06 16.2 120.5 990 45 3 Image Chart
1989 11 22 12 16.4 119.6 994 40 3 Image Chart
1989 11 22 18 16.5 119.1 998 35 3 Image Chart
1989 11 23 00 17.0 117.5 1000 0 2 Image Chart
1989 11 23 06 16.5 117.0 1004 0 2 Image Chart
1989 11 23 12 16.0 117.0 1008 0 2 Image Chart
1989 11 23 18 15.7 116.0 1008 0 2 Image Chart
1989 11 24 00 15.0 115.7 1010 0 2 Image Chart
Japan Meteorological Agency Best Track Data | Correction Date : 1992-10-21
< Typhoon 198929 1989 Season Typhoon 198931 >

Help